createdAt,value
2018-05-26T00:00:05.338Z,964.23
2018-05-26T00:15:05.267Z,964.09
2018-05-26T00:30:05.008Z,964.17
2018-05-26T00:45:04.668Z,964.53
2018-05-26T01:00:04.674Z,964.72
2018-05-26T01:15:04.711Z,964.48
2018-05-26T01:30:05.437Z,965.74
2018-05-26T01:45:04.960Z,965.3
2018-05-26T02:00:05.337Z,965.27
2018-05-26T02:15:05.096Z,966.53
2018-05-26T02:30:04.888Z,965.79
2018-05-26T02:45:04.821Z,966.31
2018-05-26T03:00:05.266Z,965.85
2018-05-26T03:15:05.070Z,965.88
2018-05-26T03:30:05.005Z,966.04
2018-05-26T03:45:05.106Z,966.2
2018-05-26T04:00:04.571Z,966.53
2018-05-26T04:15:06.253Z,966.48
2018-05-26T04:30:05.381Z,967.27
2018-05-26T04:45:05.087Z,966.84
2018-05-26T05:00:05.312Z,967.88
2018-05-26T05:15:05.046Z,967.93
2018-05-26T05:30:05.441Z,966.29
2018-05-26T05:45:09.947Z,966.09
2018-05-26T06:00:05.066Z,965.88
2018-05-26T06:15:05.852Z,964.86
2018-05-26T06:30:05.269Z,964.26
2018-05-26T06:45:05.302Z,963.76
2018-05-26T07:00:05.411Z,962.83
2018-05-26T07:15:04.882Z,961.84
2018-05-26T07:30:04.808Z,968.06
2018-05-26T07:45:05.344Z,966.92
2018-05-26T08:00:05.099Z,966.26
2018-05-26T08:15:04.652Z,964.74
2018-05-26T08:30:05.363Z,963.77
2018-05-26T08:45:05.587Z,962.72
2018-05-26T09:00:04.562Z,962.55
2018-05-26T09:15:06.136Z,962.63
2018-05-26T09:30:05.126Z,962.47
2018-05-26T09:45:09.989Z,962.22
2018-05-26T10:00:04.568Z,962.03
2018-05-26T10:15:05.279Z,962.14
2018-05-26T10:30:05.546Z,961.97
2018-05-26T10:45:05.283Z,961.81
2018-05-26T11:00:07.231Z,961.75
2018-05-26T11:15:05.631Z,961.64
2018-05-26T11:30:05.573Z,961.75
2018-05-26T11:45:04.972Z,961.69
2018-05-26T12:00:04.659Z,961.86
2018-05-26T12:15:05.290Z,961.69
2018-05-26T12:30:05.134Z,961.69
2018-05-26T12:45:05.086Z,961.64
2018-05-26T13:00:05.292Z,961.17
2018-05-26T13:15:05.235Z,961.39
2018-05-26T13:30:04.986Z,968.2
2018-05-26T13:45:04.603Z,961.14
2018-05-26T14:00:05.133Z,961.09
2018-05-26T14:15:04.614Z,968.11
2018-05-26T14:30:05.272Z,967.98
2018-05-26T14:45:05.549Z,968.17
2018-05-26T15:00:04.795Z,967.86
2018-05-26T15:15:04.677Z,967.58
2018-05-26T15:30:04.858Z,967.81
2018-05-26T15:45:04.999Z,967.25
2018-05-26T16:00:04.557Z,967.25
2018-05-26T16:15:04.745Z,967.31
2018-05-26T16:30:09.561Z,960.45
2018-05-26T16:45:04.600Z,967.42
2018-05-26T17:00:04.675Z,967.47
2018-05-26T17:15:05.550Z,967.81
2018-05-26T17:30:04.711Z,961.17
2018-05-26T17:45:04.847Z,961.25
2018-05-26T18:00:06.180Z,961.5
2018-05-26T18:15:04.973Z,962.14
2018-05-26T18:30:04.639Z,962.55
2018-05-26T18:45:04.613Z,963.55
2018-05-26T19:00:05.177Z,963.74
2018-05-26T19:15:04.873Z,964.76
2018-05-26T19:30:05.195Z,965.04
2018-05-26T19:45:05.225Z,965.95
2018-05-26T20:00:04.704Z,965.73
2018-05-26T20:15:04.853Z,965.98
2018-05-26T20:30:05.371Z,966.59
2018-05-26T20:45:05.720Z,966.65
2018-05-26T21:00:05.547Z,966.62
2018-05-26T21:15:06.788Z,967.25
2018-05-26T21:30:04.945Z,966.98
2018-05-26T21:45:05.303Z,966.81
2018-05-26T22:00:05.731Z,966.76
2018-05-26T22:15:05.181Z,967.23
2018-05-26T22:30:05.197Z,966.95
2018-05-26T22:45:06.453Z,967.01
2018-05-26T23:00:05.054Z,967.01
2018-05-26T23:15:04.903Z,967.48
2018-05-26T23:30:04.722Z,967.86
2018-05-26T23:45:05.333Z,967.61
